Terminal Aerodrome Forecast
Issued by NWS

Home | Current Version | Previous Version | Text Only | Print | Product List | Glossary On
Versions: 1 2 3 4 5 6 7 8 9 10 11 12 13 14 15 16
000
FTUS46 KMFR 200500
TAFRBG
TAF
KRBG 200532Z 2006/2106 00000KT P6SM FEW250
     FM201200 00000KT 1SM BR OVC002
     FM201600 00000KT P6SM SCT004 BKN200
     FM202200 36006KT P6SM BKN200=

USA.gov is the U.S. government's official web portal to all federal, state and local government web resources and services.